createdAt,value
2018-11-07T00:01:53.817Z,7.60
2018-11-07T00:04:22.355Z,8.27
2018-11-07T00:06:50.714Z,7.23
2018-11-07T00:09:19.018Z,8.13
2018-11-07T00:11:47.325Z,8.17
2018-11-07T00:14:15.657Z,6.80
2018-11-07T00:16:43.945Z,8.47
2018-11-07T00:19:12.603Z,6.50
2018-11-07T00:21:40.937Z,6.27
2018-11-07T00:24:09.281Z,7.73
2018-11-07T00:26:37.661Z,9.30
2018-11-07T00:29:06.216Z,6.13
2018-11-07T00:31:35.357Z,6.10
2018-11-07T00:34:03.737Z,5.47
2018-11-07T00:36:32.217Z,7.60
2018-11-07T00:39:00.577Z,6.53
2018-11-07T00:41:29.053Z,5.67
2018-11-07T00:43:57.387Z,6.33
2018-11-07T00:46:25.719Z,7.80
2018-11-07T00:48:54.114Z,9.20
2018-11-07T00:51:22.505Z,6.20
2018-11-07T00:53:50.849Z,5.07
2018-11-07T00:56:19.233Z,9.80
2018-11-07T00:58:47.629Z,5.33
2018-11-07T01:01:16.517Z,4.70
2018-11-07T01:03:44.869Z,6.63
2018-11-07T01:06:13.417Z,4.50
2018-11-07T01:08:41.729Z,3.97
2018-11-07T01:11:10.121Z,6.97
2018-11-07T01:13:38.489Z,4.40
2018-11-07T01:16:08.382Z,5.73
2018-11-07T01:18:37.118Z,3.57
2018-11-07T01:21:05.926Z,5.87
2018-11-07T01:23:34.533Z,5.27
2018-11-07T01:26:02.797Z,4.93
2018-11-07T01:28:31.241Z,3.67
2018-11-07T01:30:59.595Z,4.10
2018-11-07T01:33:27.871Z,4.50
2018-11-07T01:35:56.281Z,4.60
2018-11-07T01:38:24.733Z,5.00
2018-11-07T01:40:53.130Z,3.50
2018-11-07T01:43:21.430Z,5.27
2018-11-07T01:45:49.797Z,4.07
2018-11-07T01:48:18.550Z,5.77
2018-11-07T01:50:47.009Z,5.13
2018-11-07T01:53:15.318Z,6.97
2018-11-07T01:55:43.801Z,4.23
2018-11-07T01:58:12.102Z,4.47
2018-11-07T02:00:40.441Z,5.30
2018-11-07T02:03:08.753Z,4.00
2018-11-07T02:05:37.543Z,5.80
2018-11-07T02:08:06.751Z,5.33
2018-11-07T02:10:35.047Z,5.30
2018-11-07T02:13:03.464Z,8.73
2018-11-07T02:15:31.843Z,4.03
2018-11-07T02:18:00.216Z,4.47
2018-11-07T02:20:29.398Z,6.10
2018-11-07T02:22:57.689Z,3.90
2018-11-07T02:25:26.052Z,4.40
2018-11-07T02:27:55.239Z,6.37
2018-11-07T02:30:23.558Z,4.97
2018-11-07T02:32:51.915Z,3.63
2018-11-07T02:35:20.315Z,5.43
2018-11-07T02:37:48.779Z,3.90
2018-11-07T02:40:17.191Z,4.07
2018-11-07T02:42:46.069Z,3.50
2018-11-07T02:45:14.437Z,3.63
2018-11-07T02:47:42.921Z,6.33
2018-11-07T02:50:12.179Z,4.00
2018-11-07T02:52:40.836Z,4.50
2018-11-07T02:55:09.441Z,3.50
2018-11-07T02:57:38.177Z,4.87
2018-11-07T03:00:09.755Z,5.20
2018-11-07T03:02:38.141Z,3.60
2018-11-07T03:05:06.497Z,3.83
2018-11-07T03:07:34.875Z,5.60
2018-11-07T03:10:03.314Z,3.20
2018-11-07T03:12:31.636Z,9.97
2018-11-07T03:14:59.921Z,4.23
2018-11-07T03:17:28.207Z,3.90
2018-11-07T03:19:56.581Z,4.90
2018-11-07T03:22:24.861Z,3.83
2018-11-07T03:24:53.164Z,6.23
2018-11-07T03:27:21.501Z,5.23
2018-11-07T03:29:49.963Z,3.60
2018-11-07T03:32:18.833Z,5.03
2018-11-07T03:34:47.278Z,3.40
2018-11-07T03:37:15.610Z,6.17
2018-11-07T03:39:44.157Z,3.67
2018-11-07T03:42:12.524Z,3.13
2018-11-07T03:44:40.838Z,3.70
2018-11-07T03:47:09.154Z,3.07
2018-11-07T03:49:37.542Z,3.63
2018-11-07T03:52:05.907Z,3.60
2018-11-07T03:54:51.338Z,3.90
2018-11-07T03:57:19.681Z,4.13
2018-11-07T03:59:48.064Z,3.33
2018-11-07T04:02:16.471Z,4.63
2018-11-07T04:04:44.922Z,4.97
2018-11-07T04:07:13.258Z,6.90
2018-11-07T04:09:41.626Z,5.23
2018-11-07T04:12:11.146Z,4.40
2018-11-07T04:14:39.614Z,4.60
2018-11-07T04:17:08.294Z,5.00
2018-11-07T04:19:36.681Z,4.53
2018-11-07T04:22:05.130Z,4.30
2018-11-07T04:24:33.455Z,5.30
2018-11-07T04:27:01.922Z,5.17
2018-11-07T04:29:30.400Z,5.83
2018-11-07T04:31:58.986Z,5.80
2018-11-07T04:34:27.349Z,4.00
2018-11-07T04:36:55.641Z,4.57
2018-11-07T04:39:24.134Z,5.37
2018-11-07T04:41:52.689Z,4.97
2018-11-07T04:44:21.639Z,5.37
2018-11-07T04:46:50.671Z,5.73
2018-11-07T04:49:18.939Z,4.40
2018-11-07T04:51:47.386Z,6.30
2018-11-07T04:54:16.614Z,5.10
2018-11-07T04:56:44.876Z,5.73
2018-11-07T04:59:13.157Z,4.30
2018-11-07T05:01:41.469Z,4.43
2018-11-07T05:04:09.849Z,4.33
2018-11-07T05:06:38.213Z,4.30
2018-11-07T05:09:08.042Z,6.77
2018-11-07T05:11:36.401Z,7.97
2018-11-07T05:14:05.123Z,6.83
2018-11-07T05:16:33.902Z,5.20
2018-11-07T05:19:02.260Z,8.80
2018-11-07T05:21:30.629Z,5.87
2018-11-07T05:23:59.056Z,5.10
2018-11-07T05:26:28.194Z,4.13
2018-11-07T05:28:56.456Z,7.47
2018-11-07T05:31:25.077Z,8.40
2018-11-07T05:33:53.583Z,6.20
2018-11-07T05:36:22.540Z,4.43
2018-11-07T05:38:50.944Z,7.53
2018-11-07T05:41:19.865Z,7.43
2018-11-07T05:43:48.292Z,7.93
2018-11-07T05:46:16.691Z,8.13
2018-11-07T05:48:45.657Z,12.17
2018-11-07T05:51:14.051Z,12.33
2018-11-07T05:53:42.750Z,12.10
2018-11-07T05:56:11.229Z,13.50
2018-11-07T05:58:39.594Z,9.97
2018-11-07T06:01:08.220Z,8.70
2018-11-07T06:03:36.509Z,10.70
2018-11-07T06:06:05.343Z,7.57
2018-11-07T06:08:33.846Z,9.57
2018-11-07T06:11:02.281Z,8.93
2018-11-07T06:13:30.585Z,4.40
2018-11-07T06:15:59.276Z,7.97
2018-11-07T06:18:27.657Z,8.10
2018-11-07T06:20:55.962Z,12.53
2018-11-07T06:23:24.339Z,9.63
2018-11-07T06:25:52.694Z,10.90
2018-11-07T06:28:20.983Z,12.30
2018-11-07T06:30:49.541Z,7.90
2018-11-07T06:33:17.835Z,7.40
2018-11-07T06:35:46.267Z,8.83
2018-11-07T06:38:14.781Z,5.67
2018-11-07T06:40:43.066Z,9.07
2018-11-07T06:43:11.459Z,8.10
2018-11-07T06:45:40.037Z,6.13
2018-11-07T06:48:08.307Z,9.53
2018-11-07T06:50:36.587Z,10.87
2018-11-07T06:53:05.261Z,7.90
2018-11-07T06:55:33.568Z,11.57
2018-11-07T06:58:01.850Z,9.13
2018-11-07T07:00:33.783Z,18.57
2018-11-07T07:03:03.299Z,14.37
2018-11-07T07:05:32.149Z,13.67
2018-11-07T07:08:00.753Z,14.53
2018-11-07T07:10:29.198Z,21.97
2018-11-07T07:12:57.497Z,15.97
2018-11-07T07:15:26.074Z,11.27
2018-11-07T07:17:54.373Z,13.63
2018-11-07T07:20:22.668Z,16.40
2018-11-07T07:22:51.062Z,18.00
2018-11-07T07:25:19.410Z,13.00
2018-11-07T07:27:48.122Z,11.90
2018-11-07T07:30:18.006Z,9.53
2018-11-07T07:32:46.860Z,21.10
2018-11-07T07:35:15.746Z,18.07
2018-11-07T07:37:44.178Z,33.47
2018-11-07T07:40:13.562Z,27.47
2018-11-07T07:42:43.704Z,18.10
2018-11-07T07:45:14.866Z,17.97
2018-11-07T07:47:43.936Z,20.83
2018-11-07T07:50:13.448Z,20.77
2018-11-07T07:52:42.612Z,21.77
2018-11-07T07:55:11.783Z,15.83
2018-11-07T07:57:40.843Z,12.70
2018-11-07T08:00:13.663Z,14.17
2018-11-07T08:02:45.278Z,13.50
2018-11-07T08:05:14.162Z,14.00
2018-11-07T08:07:43.146Z,10.00
2018-11-07T08:10:13.118Z,11.23
2018-11-07T08:12:42.076Z,14.70
2018-11-07T08:15:11.240Z,11.60
2018-11-07T08:17:40.513Z,11.50
2018-11-07T08:20:10.780Z,11.40
2018-11-07T08:22:39.108Z,14.10
2018-11-07T08:25:08.355Z,16.43
2018-11-07T08:27:36.707Z,27.43
2018-11-07T08:30:06.714Z,25.07
2018-11-07T08:32:35.462Z,23.20
2018-11-07T08:35:03.758Z,17.23
2018-11-07T08:37:32.090Z,25.83
2018-11-07T08:40:00.435Z,43.90
2018-11-07T08:42:28.828Z,8.90
2018-11-07T08:44:57.040Z,11.20
2018-11-07T08:47:25.360Z,16.17
2018-11-07T08:49:53.679Z,9.97
2018-11-07T08:52:21.995Z,14.07
2018-11-07T08:54:50.345Z,13.77
2018-11-07T08:57:18.670Z,10.93
2018-11-07T08:59:47.099Z,13.07
2018-11-07T09:02:15.443Z,12.23
2018-11-07T09:04:43.698Z,11.77
2018-11-07T09:07:12.070Z,10.37
2018-11-07T09:09:40.363Z,10.60
2018-11-07T09:12:08.917Z,12.40
2018-11-07T09:14:37.246Z,9.50
2018-11-07T09:17:06.251Z,11.63
2018-11-07T09:19:35.022Z,10.43
2018-11-07T09:22:03.319Z,11.07
2018-11-07T09:24:31.835Z,10.53
2018-11-07T09:27:00.165Z,9.90
2018-11-07T09:29:28.563Z,11.27
2018-11-07T09:31:56.843Z,13.27
2018-11-07T09:34:25.141Z,9.10
2018-11-07T09:36:53.454Z,9.90
2018-11-07T09:39:21.842Z,12.40
2018-11-07T09:41:50.319Z,8.03
2018-11-07T09:44:18.745Z,10.43
2018-11-07T09:46:47.070Z,11.63
2018-11-07T09:49:16.060Z,8.77
2018-11-07T09:51:44.486Z,10.57
2018-11-07T09:54:12.781Z,9.50
2018-11-07T09:56:41.057Z,15.07
2018-11-07T09:59:09.484Z,11.83
2018-11-07T10:01:37.862Z,11.47
2018-11-07T10:04:06.229Z,9.13
2018-11-07T10:06:34.597Z,10.87
2018-11-07T10:09:02.851Z,9.50
2018-11-07T10:11:31.181Z,9.30
2018-11-07T10:13:59.579Z,10.63
2018-11-07T10:16:27.908Z,8.70
2018-11-07T10:18:56.299Z,10.13
2018-11-07T10:21:24.706Z,7.03
2018-11-07T10:23:53.054Z,9.10
2018-11-07T10:26:21.429Z,8.57
2018-11-07T10:28:50.079Z,7.30
2018-11-07T10:31:18.199Z,8.07
2018-11-07T10:33:46.466Z,7.10
2018-11-07T10:36:14.887Z,8.73
2018-11-07T10:38:43.351Z,6.40
2018-11-07T10:41:11.482Z,8.20
2018-11-07T10:43:39.856Z,7.53
2018-11-07T10:46:08.209Z,7.20
2018-11-07T10:48:36.441Z,7.00
2018-11-07T10:51:04.846Z,8.37
2018-11-07T10:53:33.190Z,11.00
2018-11-07T10:56:01.501Z,9.33
2018-11-07T10:58:30.151Z,7.13
2018-11-07T11:01:03.839Z,6.90
2018-11-07T11:03:32.828Z,6.37
2018-11-07T11:06:01.120Z,11.10
2018-11-07T11:08:29.426Z,13.83
2018-11-07T11:10:58.094Z,34.30
2018-11-07T11:13:26.702Z,57.40
2018-11-07T11:15:55.111Z,34.47
2018-11-07T11:18:23.842Z,29.87
2018-11-07T11:20:52.201Z,29.27
2018-11-07T11:23:20.578Z,15.67
2018-11-07T11:25:49.055Z,17.07
2018-11-07T11:28:17.302Z,18.77
2018-11-07T11:30:45.644Z,19.27
2018-11-07T11:33:13.930Z,9.77
2018-11-07T11:35:42.258Z,6.00
2018-11-07T11:38:10.558Z,11.77
2018-11-07T11:40:39.057Z,7.17
2018-11-07T11:43:07.411Z,7.57
2018-11-07T11:45:35.858Z,11.87
2018-11-07T11:48:04.234Z,14.13
2018-11-07T11:50:32.642Z,11.17
2018-11-07T11:53:01.020Z,11.20
2018-11-07T11:55:29.445Z,13.37
2018-11-07T11:57:58.406Z,13.63
2018-11-07T12:00:26.821Z,13.60
2018-11-07T12:02:55.262Z,9.73
2018-11-07T12:05:23.947Z,8.97
2018-11-07T12:07:52.318Z,9.03
2018-11-07T12:10:22.914Z,14.33
2018-11-07T12:12:52.538Z,9.67
2018-11-07T12:15:22.203Z,9.20
2018-11-07T12:17:51.557Z,10.20
2018-11-07T12:20:19.979Z,10.57
2018-11-07T12:22:48.330Z,9.47
2018-11-07T12:25:17.782Z,10.87
2018-11-07T12:27:46.139Z,8.90
2018-11-07T12:30:16.683Z,14.67
2018-11-07T12:32:46.230Z,9.27
2018-11-07T12:35:15.210Z,9.67
2018-11-07T12:37:43.582Z,8.33
2018-11-07T12:40:12.728Z,8.60
2018-11-07T12:42:41.138Z,22.97
2018-11-07T12:45:11.447Z,17.50
2018-11-07T12:47:40.030Z,16.17
2018-11-07T12:50:10.636Z,25.13
2018-11-07T12:52:38.967Z,15.23
2018-11-07T12:55:08.672Z,14.20
2018-11-07T12:57:37.373Z,8.70
2018-11-07T13:00:08.316Z,15.00
2018-11-07T13:02:36.744Z,9.83
2018-11-07T13:05:06.067Z,9.80
2018-11-07T13:07:34.465Z,9.33
2018-11-07T13:10:02.928Z,7.17
2018-11-07T13:12:31.247Z,9.50
2018-11-07T13:14:59.867Z,10.20
2018-11-07T13:17:28.325Z,8.83
2018-11-07T13:19:56.798Z,11.83
2018-11-07T13:22:25.212Z,10.73
2018-11-07T13:24:53.493Z,12.33
2018-11-07T13:27:21.825Z,11.27
2018-11-07T13:29:50.202Z,12.80
2018-11-07T13:32:18.799Z,15.57
2018-11-07T13:34:47.180Z,8.43
2018-11-07T13:37:15.805Z,14.50
2018-11-07T13:39:43.949Z,11.80
2018-11-07T13:42:13.115Z,11.13
2018-11-07T13:44:41.519Z,14.10
2018-11-07T13:47:09.917Z,23.70
2018-11-07T13:49:38.795Z,31.57
2018-11-07T13:52:07.333Z,15.87
2018-11-07T13:54:35.685Z,11.40
2018-11-07T13:57:04.035Z,12.87
2018-11-07T13:59:32.463Z,10.03
2018-11-07T14:02:00.793Z,25.70
2018-11-07T14:04:29.145Z,17.00
2018-11-07T14:06:57.583Z,12.80
2018-11-07T14:09:26.213Z,11.80
2018-11-07T14:11:54.975Z,18.70
2018-11-07T14:14:23.414Z,12.87
2018-11-07T14:16:51.965Z,23.80
2018-11-07T14:19:20.909Z,16.13
2018-11-07T14:21:49.262Z,15.37
2018-11-07T14:24:17.624Z,9.97
2018-11-07T14:26:46.069Z,13.00
2018-11-07T14:29:15.646Z,20.00
2018-11-07T14:31:44.100Z,14.50
2018-11-07T14:34:12.840Z,10.53
2018-11-07T14:36:41.162Z,12.97
2018-11-07T14:39:10.693Z,13.57
2018-11-07T14:41:39.137Z,10.73
2018-11-07T14:44:08.157Z,13.53
2018-11-07T14:46:36.554Z,16.33
2018-11-07T14:49:05.101Z,11.83
2018-11-07T14:51:33.425Z,11.83
2018-11-07T14:54:01.825Z,12.53
2018-11-07T14:56:30.715Z,15.77
2018-11-07T14:58:59.105Z,11.50
2018-11-07T15:01:27.667Z,11.37
2018-11-07T15:03:55.947Z,13.23
2018-11-07T15:06:24.271Z,15.43
2018-11-07T15:08:52.714Z,15.20
2018-11-07T15:11:21.045Z,13.63
2018-11-07T15:13:49.387Z,12.30
2018-11-07T15:16:17.684Z,12.73
2018-11-07T15:18:46.043Z,12.83
2018-11-07T15:21:14.365Z,11.80
2018-11-07T15:23:42.730Z,12.93
2018-11-07T15:26:11.053Z,9.57
2018-11-07T15:28:39.344Z,6.47
2018-11-07T15:31:07.718Z,8.60
2018-11-07T15:33:36.090Z,8.53
2018-11-07T15:36:04.566Z,9.93
2018-11-07T15:38:32.817Z,13.40
2018-11-07T15:41:01.124Z,12.33
2018-11-07T15:43:29.969Z,13.40
2018-11-07T15:45:58.199Z,8.93
2018-11-07T15:48:26.541Z,9.97
2018-11-07T15:51:00.615Z,10.13
2018-11-07T15:53:29.061Z,7.60
2018-11-07T15:55:57.358Z,10.10
2018-11-07T15:58:25.763Z,9.67
2018-11-07T16:00:54.095Z,9.67
2018-11-07T16:03:27.827Z,8.60
2018-11-07T16:05:56.210Z,9.07
2018-11-07T16:08:24.489Z,8.57
2018-11-07T16:10:52.823Z,8.80
2018-11-07T16:13:21.276Z,7.23
2018-11-07T16:15:49.617Z,6.87
2018-11-07T16:18:17.966Z,5.70
2018-11-07T16:20:46.420Z,7.60
2018-11-07T16:23:15.166Z,7.90
2018-11-07T16:25:43.564Z,6.90
2018-11-07T16:28:11.901Z,10.70
2018-11-07T16:30:40.897Z,10.23
2018-11-07T16:33:09.487Z,8.40
2018-11-07T16:35:37.834Z,6.87
2018-11-07T16:38:06.244Z,8.03
2018-11-07T16:40:34.817Z,8.93
2018-11-07T16:43:03.181Z,8.40
2018-11-07T16:45:31.461Z,7.97
2018-11-07T16:48:00.047Z,8.97
2018-11-07T16:50:28.339Z,7.97
2018-11-07T16:52:56.712Z,8.80
2018-11-07T16:55:25.832Z,8.63
2018-11-07T16:57:54.134Z,22.10
2018-11-07T17:00:22.467Z,11.13
2018-11-07T17:02:51.051Z,9.23
2018-11-07T17:05:19.943Z,16.70
2018-11-07T17:07:48.691Z,15.17
2018-11-07T17:10:18.522Z,15.77
2018-11-07T17:12:46.904Z,10.27
2018-11-07T17:15:15.304Z,7.97
2018-11-07T17:17:43.642Z,11.47
2018-11-07T17:20:13.287Z,8.20
2018-11-07T17:22:42.024Z,10.70
2018-11-07T17:25:12.954Z,9.07
2018-11-07T17:27:41.755Z,8.00
2018-11-07T17:30:11.207Z,10.53
2018-11-07T17:32:39.778Z,8.53
2018-11-07T17:35:09.990Z,11.33
2018-11-07T17:37:38.371Z,9.30
2018-11-07T17:40:10.315Z,12.30
2018-11-07T17:42:38.886Z,10.73
2018-11-07T17:45:10.091Z,6.90
2018-11-07T17:47:38.838Z,11.63
2018-11-07T17:50:08.174Z,7.83
2018-11-07T17:52:37.566Z,10.63
2018-11-07T17:55:06.770Z,11.77
2018-11-07T17:57:35.107Z,9.87
2018-11-07T18:00:03.539Z,12.03
2018-11-07T18:02:32.499Z,10.73
2018-11-07T18:05:00.978Z,10.60
2018-11-07T18:07:29.366Z,12.10
2018-11-07T18:09:57.781Z,12.50
2018-11-07T18:12:26.418Z,11.30
2018-11-07T18:14:54.826Z,11.23
2018-11-07T18:17:23.582Z,8.50
2018-11-07T18:19:52.441Z,9.33
2018-11-07T18:22:20.735Z,14.97
2018-11-07T18:24:49.330Z,13.47
2018-11-07T18:27:17.739Z,11.60
2018-11-07T18:29:46.276Z,12.67
2018-11-07T18:32:14.715Z,14.67
2018-11-07T18:34:43.067Z,15.50
2018-11-07T18:37:11.435Z,13.53
2018-11-07T18:39:40.122Z,13.30
2018-11-07T18:42:08.419Z,15.60
2018-11-07T18:44:36.752Z,17.57
2018-11-07T18:47:05.483Z,23.67
2018-11-07T18:49:33.900Z,21.03
2018-11-07T18:52:02.314Z,15.03
2018-11-07T18:54:30.725Z,13.93
2018-11-07T18:56:59.138Z,12.07
2018-11-07T18:59:28.290Z,12.60
2018-11-07T19:01:56.703Z,11.43
2018-11-07T19:04:25.238Z,14.37
2018-11-07T19:06:53.609Z,10.67
2018-11-07T19:09:21.927Z,12.03
2018-11-07T19:11:50.212Z,7.53
2018-11-07T19:14:18.734Z,14.33
2018-11-07T19:16:47.388Z,9.47
2018-11-07T19:19:15.686Z,9.97
2018-11-07T19:21:44.098Z,11.03
2018-11-07T19:24:12.498Z,11.27
2018-11-07T19:26:41.095Z,9.97
2018-11-07T19:29:09.421Z,13.40
2018-11-07T19:31:37.838Z,11.27
2018-11-07T19:34:06.983Z,11.03
2018-11-07T19:36:35.487Z,11.60
2018-11-07T19:39:06.685Z,13.43
2018-11-07T19:41:34.985Z,11.80
2018-11-07T19:44:03.390Z,15.13
2018-11-07T19:46:31.802Z,13.47
2018-11-07T19:49:00.138Z,11.23
2018-11-07T19:51:29.213Z,12.30
2018-11-07T19:53:57.739Z,12.33
2018-11-07T19:56:26.587Z,11.97
2018-11-07T19:58:55.266Z,27.33
2018-11-07T20:01:23.702Z,63.53
2018-11-07T20:03:52.074Z,117.43
2018-11-07T20:06:20.522Z,85.70
2018-11-07T20:08:48.937Z,56.97
2018-11-07T20:11:17.354Z,21.73
2018-11-07T20:13:45.865Z,17.83
2018-11-07T20:16:15.593Z,33.07
2018-11-07T20:18:43.958Z,26.37
2018-11-07T20:21:12.350Z,23.33
2018-11-07T20:23:40.752Z,55.40
2018-11-07T20:26:09.042Z,87.90
2018-11-07T20:28:37.435Z,100.40
2018-11-07T20:31:06.182Z,18.87
2018-11-07T20:33:34.566Z,14.90
2018-11-07T20:36:03.600Z,10.70
2018-11-07T20:38:32.219Z,13.43
2018-11-07T20:41:00.518Z,13.17
2018-11-07T20:43:28.934Z,14.87
2018-11-07T20:45:57.308Z,13.70
2018-11-07T20:48:26.234Z,12.90
2018-11-07T20:50:54.528Z,13.10
2018-11-07T20:53:23.610Z,13.10
2018-11-07T20:55:51.998Z,13.10
2018-11-07T20:58:20.462Z,15.07
2018-11-07T21:00:48.801Z,15.37
2018-11-07T21:03:17.245Z,10.40
2018-11-07T21:05:45.575Z,13.00
2018-11-07T21:08:13.928Z,17.73
2018-11-07T21:10:42.238Z,23.20
2018-11-07T21:13:10.526Z,25.47
2018-11-07T21:15:38.869Z,18.63
2018-11-07T21:18:07.282Z,18.43
2018-11-07T21:20:35.759Z,20.27
2018-11-07T21:23:04.062Z,80.40
2018-11-07T21:25:32.419Z,68.73
2018-11-07T21:28:00.823Z,22.93
2018-11-07T21:30:29.138Z,15.07
2018-11-07T21:32:57.459Z,15.57
2018-11-07T21:35:27.181Z,13.60
2018-11-07T21:37:55.568Z,15.67
2018-11-07T21:40:23.929Z,14.53
2018-11-07T21:42:52.673Z,13.93
2018-11-07T21:45:21.019Z,13.77
2018-11-07T21:47:49.384Z,10.90
2018-11-07T21:50:17.974Z,13.20
2018-11-07T21:52:46.572Z,12.40
2018-11-07T21:55:15.014Z,12.53
2018-11-07T21:57:43.804Z,15.50
2018-11-07T22:00:14.757Z,11.73
2018-11-07T22:02:43.487Z,11.90
2018-11-07T22:05:12.609Z,12.23
2018-11-07T22:07:41.197Z,11.13
2018-11-07T22:10:10.657Z,13.03
2018-11-07T22:12:39.220Z,14.30
2018-11-07T22:15:08.335Z,11.73
2018-11-07T22:17:36.738Z,11.70
2018-11-07T22:20:07.963Z,14.00
2018-11-07T22:22:36.297Z,11.47
2018-11-07T22:25:04.841Z,11.67
2018-11-07T22:27:33.129Z,16.10
2018-11-07T22:30:01.545Z,10.30
2018-11-07T22:32:29.843Z,11.40
2018-11-07T22:34:58.117Z,14.00
2018-11-07T22:37:26.769Z,12.03
2018-11-07T22:39:56.645Z,18.07
2018-11-07T22:42:24.925Z,13.43
2018-11-07T22:44:53.437Z,12.97
2018-11-07T22:47:21.825Z,8.33
2018-11-07T22:49:50.129Z,7.23
2018-11-07T22:52:18.521Z,11.27
2018-11-07T22:54:46.861Z,9.10
2018-11-07T22:57:15.157Z,12.20
2018-11-07T22:59:43.474Z,9.37
2018-11-07T23:02:11.879Z,8.20
2018-11-07T23:04:40.254Z,9.93
2018-11-07T23:07:08.630Z,9.27
2018-11-07T23:09:36.898Z,9.27
2018-11-07T23:12:05.633Z,13.47
2018-11-07T23:14:33.934Z,10.57
2018-11-07T23:17:02.458Z,15.27
2018-11-07T23:19:30.917Z,15.33
2018-11-07T23:21:59.418Z,12.80
2018-11-07T23:24:27.793Z,9.30
2018-11-07T23:26:56.147Z,10.10
2018-11-07T23:29:24.476Z,11.83
2018-11-07T23:31:52.826Z,11.23
2018-11-07T23:34:21.814Z,8.37
2018-11-07T23:36:50.129Z,8.70
2018-11-07T23:39:18.420Z,10.17
2018-11-07T23:41:46.682Z,9.63
2018-11-07T23:44:15.558Z,11.57
2018-11-07T23:46:43.955Z,9.70
2018-11-07T23:49:12.285Z,11.20
2018-11-07T23:51:45.976Z,12.17
2018-11-07T23:54:14.379Z,13.90
2018-11-07T23:56:42.749Z,13.80
2018-11-07T23:59:11.167Z,12.30
